Terminal Aerodrome Forecast
Issued by NWS Greer, SC

Home | Current Version | Previous Version | Text Only | Print | Product List | Glossary On
Versions: 1 2 3 4 5 6 7 8 9 10 11 12 13 14 15 16 17 18 19 20 21 22 23 24 25
000
FTUS42 KGSP 241459 AAA
TAFCLT
TAF AMD
KCLT 241459Z 2415/2512 23005KT P6SM FEW030 BKN250
     FM241700 24006KT P6SM VCSH SCT050 BKN250
     FM250000 21005KT P6SM SCT250
     FM251100 33003KT P6SM SCT250=

USA.gov is the U.S. government's official web portal to all federal, state and local government web resources and services.